sensor_id;sensor_type;location;lat;lon;timestamp;P1;durP1;ratioP1;P2;durP2;ratioP2
52964;SDS011;42923;53.220;6.528;2022-12-10T00:01:45;41.08;;;20.80;;
52964;SDS011;42923;53.220;6.528;2022-12-10T00:04:12;49.67;;;20.33;;
52964;SDS011;42923;53.220;6.528;2022-12-10T00:06:39;51.83;;;23.25;;
52964;SDS011;42923;53.220;6.528;2022-12-10T00:09:06;52.97;;;25.25;;
52964;SDS011;42923;53.220;6.528;2022-12-10T00:11:37;53.78;;;23.92;;
52964;SDS011;42923;53.220;6.528;2022-12-10T00:14:03;54.63;;;24.15;;
52964;SDS011;42923;53.220;6.528;2022-12-10T00:16:29;48.38;;;22.10;;
52964;SDS011;42923;53.220;6.528;2022-12-10T00:18:56;52.20;;;21.23;;
52964;SDS011;42923;53.220;6.528;2022-12-10T00:21:23;50.95;;;24.35;;
52964;SDS011;42923;53.220;6.528;2022-12-10T00:23:50;48.83;;;24.08;;
52964;SDS011;42923;53.220;6.528;2022-12-10T00:26:35;49.25;;;22.65;;
52964;SDS011;42923;53.220;6.528;2022-12-10T00:29:03;40.03;;;20.48;;
52964;SDS011;42923;53.220;6.528;2022-12-10T00:31:32;49.35;;;22.58;;
52964;SDS011;42923;53.220;6.528;2022-12-10T00:34:01;50.13;;;25.02;;
52964;SDS011;42923;53.220;6.528;2022-12-10T00:36:30;55.45;;;24.50;;
52964;SDS011;42923;53.220;6.528;2022-12-10T00:38:58;53.88;;;25.63;;
52964;SDS011;42923;53.220;6.528;2022-12-10T00:41:26;49.10;;;22.35;;
52964;SDS011;42923;53.220;6.528;2022-12-10T00:43:53;60.58;;;26.52;;
52964;SDS011;42923;53.220;6.528;2022-12-10T00:46:19;55.58;;;25.60;;
52964;SDS011;42923;53.220;6.528;2022-12-10T00:48:44;46.28;;;21.10;;
52964;SDS011;42923;53.220;6.528;2022-12-10T00:51:12;43.63;;;20.98;;
52964;SDS011;42923;53.220;6.528;2022-12-10T00:53:41;47.28;;;22.98;;
52964;SDS011;42923;53.220;6.528;2022-12-10T00:56:08;55.55;;;25.05;;
52964;SDS011;42923;53.220;6.528;2022-12-10T00:58:35;54.38;;;25.73;;
52964;SDS011;42923;53.220;6.528;2022-12-10T01:01:21;63.60;;;27.17;;
52964;SDS011;42923;53.220;6.528;2022-12-10T01:03:52;56.50;;;24.42;;
52964;SDS011;42923;53.220;6.528;2022-12-10T01:06:21;52.90;;;24.00;;
52964;SDS011;42923;53.220;6.528;2022-12-10T01:08:50;58.33;;;27.40;;
52964;SDS011;42923;53.220;6.528;2022-12-10T01:11:17;50.50;;;24.23;;
52964;SDS011;42923;53.220;6.528;2022-12-10T01:13:45;55.05;;;26.40;;
52964;SDS011;42923;53.220;6.528;2022-12-10T01:16:13;53.50;;;25.38;;
52964;SDS011;42923;53.220;6.528;2022-12-10T01:18:40;64.50;;;26.33;;
52964;SDS011;42923;53.220;6.528;2022-12-10T01:21:07;52.33;;;27.20;;
52964;SDS011;42923;53.220;6.528;2022-12-10T01:23:36;47.92;;;23.40;;
52964;SDS011;42923;53.220;6.528;2022-12-10T01:26:04;48.05;;;23.65;;
52964;SDS011;42923;53.220;6.528;2022-12-10T01:28:34;54.63;;;25.30;;
52964;SDS011;42923;53.220;6.528;2022-12-10T01:31:02;57.47;;;26.23;;
52964;SDS011;42923;53.220;6.528;2022-12-10T01:33:30;60.00;;;28.67;;
52964;SDS011;42923;53.220;6.528;2022-12-10T01:35:57;58.65;;;27.13;;
52964;SDS011;42923;53.220;6.528;2022-12-10T01:38:28;52.72;;;26.40;;
52964;SDS011;42923;53.220;6.528;2022-12-10T01:40:54;60.88;;;27.42;;
52964;SDS011;42923;53.220;6.528;2022-12-10T01:43:19;58.75;;;27.95;;
52964;SDS011;42923;53.220;6.528;2022-12-10T01:45:45;64.03;;;29.05;;
52964;SDS011;42923;53.220;6.528;2022-12-10T01:48:11;71.10;;;30.92;;
52964;SDS011;42923;53.220;6.528;2022-12-10T01:50:37;67.70;;;31.02;;
52964;SDS011;42923;53.220;6.528;2022-12-10T01:53:04;72.00;;;30.45;;
52964;SDS011;42923;53.220;6.528;2022-12-10T01:55:44;59.40;;;25.15;;
52964;SDS011;42923;53.220;6.528;2022-12-10T01:58:13;56.78;;;24.00;;
52964;SDS011;42923;53.220;6.528;2022-12-10T02:00:43;64.05;;;27.08;;
52964;SDS011;42923;53.220;6.528;2022-12-10T02:03:23;65.68;;;30.45;;
52964;SDS011;42923;53.220;6.528;2022-12-10T02:09:09;60.60;;;27.85;;
52964;SDS011;42923;53.220;6.528;2022-12-10T02:11:55;72.80;;;32.28;;
52964;SDS011;42923;53.220;6.528;2022-12-10T02:14:44;59.78;;;27.00;;
52964;SDS011;42923;53.220;6.528;2022-12-10T02:17:22;56.30;;;28.75;;
52964;SDS011;42923;53.220;6.528;2022-12-10T02:22:25;66.93;;;29.23;;
52964;SDS011;42923;53.220;6.528;2022-12-10T02:24:56;52.63;;;23.88;;
52964;SDS011;42923;53.220;6.528;2022-12-10T02:30:07;60.78;;;25.17;;
52964;SDS011;42923;53.220;6.528;2022-12-10T02:32:37;53.53;;;24.88;;
52964;SDS011;42923;53.220;6.528;2022-12-10T02:35:09;61.28;;;25.95;;
52964;SDS011;42923;53.220;6.528;2022-12-10T02:37:41;60.90;;;25.13;;
52964;SDS011;42923;53.220;6.528;2022-12-10T02:40:18;78.25;;;30.05;;
52964;SDS011;42923;53.220;6.528;2022-12-10T02:42:50;75.15;;;34.80;;
52964;SDS011;42923;53.220;6.528;2022-12-10T02:45:20;62.20;;;30.30;;
52964;SDS011;42923;53.220;6.528;2022-12-10T02:47:49;61.33;;;27.77;;
52964;SDS011;42923;53.220;6.528;2022-12-10T02:50:19;60.85;;;26.70;;
52964;SDS011;42923;53.220;6.528;2022-12-10T02:52:48;63.08;;;28.42;;
52964;SDS011;42923;53.220;6.528;2022-12-10T02:55:14;50.58;;;22.75;;
52964;SDS011;42923;53.220;6.528;2022-12-10T03:00:32;66.75;;;31.92;;
52964;SDS011;42923;53.220;6.528;2022-12-10T03:06:02;50.47;;;24.33;;
52964;SDS011;42923;53.220;6.528;2022-12-10T03:08:51;62.78;;;29.23;;
52964;SDS011;42923;53.220;6.528;2022-12-10T03:11:27;66.03;;;30.30;;
52964;SDS011;42923;53.220;6.528;2022-12-10T03:13:54;63.90;;;28.90;;
52964;SDS011;42923;53.220;6.528;2022-12-10T03:16:49;52.80;;;25.52;;
52964;SDS011;42923;53.220;6.528;2022-12-10T03:19:20;69.57;;;28.17;;
52964;SDS011;42923;53.220;6.528;2022-12-10T03:21:49;62.15;;;27.98;;
52964;SDS011;42923;53.220;6.528;2022-12-10T03:24:18;60.92;;;26.50;;
52964;SDS011;42923;53.220;6.528;2022-12-10T03:26:45;60.72;;;31.63;;
52964;SDS011;42923;53.220;6.528;2022-12-10T03:29:15;64.47;;;28.05;;
52964;SDS011;42923;53.220;6.528;2022-12-10T03:31:44;69.55;;;30.27;;
52964;SDS011;42923;53.220;6.528;2022-12-10T03:34:11;57.60;;;26.40;;
52964;SDS011;42923;53.220;6.528;2022-12-10T03:36:38;56.58;;;26.92;;
52964;SDS011;42923;53.220;6.528;2022-12-10T03:39:06;64.38;;;29.90;;
52964;SDS011;42923;53.220;6.528;2022-12-10T03:41:32;65.13;;;28.95;;
52964;SDS011;42923;53.220;6.528;2022-12-10T03:43:59;59.67;;;28.40;;
52964;SDS011;42923;53.220;6.528;2022-12-10T03:46:26;67.60;;;31.88;;
52964;SDS011;42923;53.220;6.528;2022-12-10T03:48:55;58.42;;;27.83;;
52964;SDS011;42923;53.220;6.528;2022-12-10T03:51:21;62.33;;;29.65;;
52964;SDS011;42923;53.220;6.528;2022-12-10T03:53:47;61.70;;;29.92;;
52964;SDS011;42923;53.220;6.528;2022-12-10T03:56:14;57.13;;;28.25;;
52964;SDS011;42923;53.220;6.528;2022-12-10T03:58:41;66.30;;;29.20;;
52964;SDS011;42923;53.220;6.528;2022-12-10T04:01:07;64.10;;;28.05;;
52964;SDS011;42923;53.220;6.528;2022-12-10T04:03:36;57.97;;;28.00;;
52964;SDS011;42923;53.220;6.528;2022-12-10T04:06:05;64.97;;;29.10;;
52964;SDS011;42923;53.220;6.528;2022-12-10T04:08:33;60.45;;;25.63;;
52964;SDS011;42923;53.220;6.528;2022-12-10T04:11:04;61.10;;;28.40;;
52964;SDS011;42923;53.220;6.528;2022-12-10T04:13:34;64.43;;;30.75;;
52964;SDS011;42923;53.220;6.528;2022-12-10T04:16:20;59.40;;;27.60;;
52964;SDS011;42923;53.220;6.528;2022-12-10T04:18:52;59.63;;;28.65;;
52964;SDS011;42923;53.220;6.528;2022-12-10T04:21:19;72.68;;;32.58;;
52964;SDS011;42923;53.220;6.528;2022-12-10T04:24:03;61.08;;;27.98;;
52964;SDS011;42923;53.220;6.528;2022-12-10T04:26:47;66.03;;;29.95;;
52964;SDS011;42923;53.220;6.528;2022-12-10T04:29:23;69.13;;;32.50;;
52964;SDS011;42923;53.220;6.528;2022-12-10T04:31:50;68.22;;;31.00;;
52964;SDS011;42923;53.220;6.528;2022-12-10T04:34:16;62.10;;;30.08;;
52964;SDS011;42923;53.220;6.528;2022-12-10T04:36:42;74.40;;;32.20;;
52964;SDS011;42923;53.220;6.528;2022-12-10T04:39:08;65.25;;;31.17;;
52964;SDS011;42923;53.220;6.528;2022-12-10T04:41:37;52.83;;;27.60;;
52964;SDS011;42923;53.220;6.528;2022-12-10T04:44:07;69.90;;;32.60;;
52964;SDS011;42923;53.220;6.528;2022-12-10T04:46:33;62.90;;;29.30;;
52964;SDS011;42923;53.220;6.528;2022-12-10T04:48:59;70.20;;;31.75;;
52964;SDS011;42923;53.220;6.528;2022-12-10T04:51:25;63.63;;;28.40;;
52964;SDS011;42923;53.220;6.528;2022-12-10T04:53:51;76.38;;;32.72;;
52964;SDS011;42923;53.220;6.528;2022-12-10T04:56:17;59.97;;;28.15;;
52964;SDS011;42923;53.220;6.528;2022-12-10T04:58:42;60.58;;;30.90;;
52964;SDS011;42923;53.220;6.528;2022-12-10T05:01:09;75.65;;;30.98;;
52964;SDS011;42923;53.220;6.528;2022-12-10T05:03:36;60.55;;;31.38;;
52964;SDS011;42923;53.220;6.528;2022-12-10T05:06:02;68.88;;;29.80;;
52964;SDS011;42923;53.220;6.528;2022-12-10T05:08:29;65.22;;;29.90;;
52964;SDS011;42923;53.220;6.528;2022-12-10T05:10:59;66.10;;;29.27;;
52964;SDS011;42923;53.220;6.528;2022-12-10T05:13:31;63.65;;;25.83;;
52964;SDS011;42923;53.220;6.528;2022-12-10T05:15:57;77.60;;;35.10;;
52964;SDS011;42923;53.220;6.528;2022-12-10T05:18:22;67.68;;;29.98;;
52964;SDS011;42923;53.220;6.528;2022-12-10T05:20:48;38.88;;;16.58;;
52964;SDS011;42923;53.220;6.528;2022-12-10T05:23:15;55.92;;;24.30;;
52964;SDS011;42923;53.220;6.528;2022-12-10T05:26:00;81.85;;;32.90;;
52964;SDS011;42923;53.220;6.528;2022-12-10T05:28:28;53.65;;;21.67;;
52964;SDS011;42923;53.220;6.528;2022-12-10T05:30:55;73.75;;;32.17;;
52964;SDS011;42923;53.220;6.528;2022-12-10T05:33:21;55.03;;;26.85;;
52964;SDS011;42923;53.220;6.528;2022-12-10T05:35:51;64.53;;;29.77;;
52964;SDS011;42923;53.220;6.528;2022-12-10T05:38:28;61.20;;;26.52;;
52964;SDS011;42923;53.220;6.528;2022-12-10T05:40:55;70.88;;;30.85;;
52964;SDS011;42923;53.220;6.528;2022-12-10T05:43:30;74.05;;;32.35;;
52964;SDS011;42923;53.220;6.528;2022-12-10T05:46:06;90.28;;;33.08;;
52964;SDS011;42923;53.220;6.528;2022-12-10T05:48:34;51.22;;;20.77;;
52964;SDS011;42923;53.220;6.528;2022-12-10T05:51:07;79.25;;;33.63;;
52964;SDS011;42923;53.220;6.528;2022-12-10T05:53:35;66.93;;;30.15;;
52964;SDS011;42923;53.220;6.528;2022-12-10T05:56:02;86.40;;;23.75;;
52964;SDS011;42923;53.220;6.528;2022-12-10T06:01:16;68.88;;;27.73;;
52964;SDS011;42923;53.220;6.528;2022-12-10T06:03:47;73.78;;;32.17;;
52964;SDS011;42923;53.220;6.528;2022-12-10T06:06:19;78.90;;;33.55;;
52964;SDS011;42923;53.220;6.528;2022-12-10T06:08:46;111.85;;;32.58;;
52964;SDS011;42923;53.220;6.528;2022-12-10T06:11:12;51.38;;;24.38;;
52964;SDS011;42923;53.220;6.528;2022-12-10T06:13:39;69.30;;;27.52;;
52964;SDS011;42923;53.220;6.528;2022-12-10T06:16:08;80.32;;;26.08;;
52964;SDS011;42923;53.220;6.528;2022-12-10T06:18:35;40.85;;;17.00;;
52964;SDS011;42923;53.220;6.528;2022-12-10T06:21:05;99.47;;;23.80;;
52964;SDS011;42923;53.220;6.528;2022-12-10T06:23:33;141.70;;;27.85;;
52964;SDS011;42923;53.220;6.528;2022-12-10T06:26:03;147.18;;;27.33;;
52964;SDS011;42923;53.220;6.528;2022-12-10T06:28:30;217.40;;;35.88;;
52964;SDS011;42923;53.220;6.528;2022-12-10T06:30:57;143.15;;;33.35;;
52964;SDS011;42923;53.220;6.528;2022-12-10T06:33:24;88.95;;;29.67;;
52964;SDS011;42923;53.220;6.528;2022-12-10T06:35:50;91.50;;;25.85;;
52964;SDS011;42923;53.220;6.528;2022-12-10T06:38:15;83.97;;;24.77;;
52964;SDS011;42923;53.220;6.528;2022-12-10T06:40:41;101.03;;;24.67;;
52964;SDS011;42923;53.220;6.528;2022-12-10T06:43:07;79.88;;;17.90;;
52964;SDS011;42923;53.220;6.528;2022-12-10T06:45:33;79.18;;;19.05;;
52964;SDS011;42923;53.220;6.528;2022-12-10T06:47:59;129.20;;;30.80;;
52964;SDS011;42923;53.220;6.528;2022-12-10T06:50:24;193.40;;;30.90;;
52964;SDS011;42923;53.220;6.528;2022-12-10T06:52:50;158.05;;;32.63;;
52964;SDS011;42923;53.220;6.528;2022-12-10T06:55:16;212.23;;;30.15;;
52964;SDS011;42923;53.220;6.528;2022-12-10T06:57:42;109.45;;;25.05;;
52964;SDS011;42923;53.220;6.528;2022-12-10T07:00:08;96.47;;;21.98;;
52964;SDS011;42923;53.220;6.528;2022-12-10T07:02:34;133.38;;;26.98;;
52964;SDS011;42923;53.220;6.528;2022-12-10T07:05:00;138.52;;;26.63;;
52964;SDS011;42923;53.220;6.528;2022-12-10T07:07:25;64.15;;;17.45;;
52964;SDS011;42923;53.220;6.528;2022-12-10T07:09:51;55.28;;;13.65;;
52964;SDS011;42923;53.220;6.528;2022-12-10T07:12:17;88.80;;;18.58;;
52964;SDS011;42923;53.220;6.528;2022-12-10T07:14:43;58.92;;;18.60;;
52964;SDS011;42923;53.220;6.528;2022-12-10T07:17:08;95.28;;;25.48;;
52964;SDS011;42923;53.220;6.528;2022-12-10T07:19:34;121.85;;;25.88;;
52964;SDS011;42923;53.220;6.528;2022-12-10T07:22:00;69.47;;;20.65;;
52964;SDS011;42923;53.220;6.528;2022-12-10T07:24:25;114.55;;;24.15;;
52964;SDS011;42923;53.220;6.528;2022-12-10T07:26:51;78.65;;;24.83;;
52964;SDS011;42923;53.220;6.528;2022-12-10T07:29:18;37.00;;;18.38;;
52964;SDS011;42923;53.220;6.528;2022-12-10T07:31:45;68.45;;;19.17;;
52964;SDS011;42923;53.220;6.528;2022-12-10T07:34:13;53.05;;;12.70;;
52964;SDS011;42923;53.220;6.528;2022-12-10T07:36:40;112.03;;;24.67;;
52964;SDS011;42923;53.220;6.528;2022-12-10T07:39:07;99.63;;;27.90;;
52964;SDS011;42923;53.220;6.528;2022-12-10T07:41:34;86.15;;;21.58;;
52964;SDS011;42923;53.220;6.528;2022-12-10T07:44:01;34.00;;;15.55;;
52964;SDS011;42923;53.220;6.528;2022-12-10T07:46:29;101.78;;;23.90;;
52964;SDS011;42923;53.220;6.528;2022-12-10T07:48:56;41.58;;;14.27;;
52964;SDS011;42923;53.220;6.528;2022-12-10T07:51:26;59.90;;;22.02;;
52964;SDS011;42923;53.220;6.528;2022-12-10T07:53:52;55.20;;;15.00;;
52964;SDS011;42923;53.220;6.528;2022-12-10T07:56:18;57.15;;;16.35;;
52964;SDS011;42923;53.220;6.528;2022-12-10T07:58:44;76.45;;;22.92;;
52964;SDS011;42923;53.220;6.528;2022-12-10T08:01:12;65.78;;;17.40;;
52964;SDS011;42923;53.220;6.528;2022-12-10T08:03:39;54.45;;;16.70;;
52964;SDS011;42923;53.220;6.528;2022-12-10T08:06:06;22.05;;;9.77;;
52964;SDS011;42923;53.220;6.528;2022-12-10T08:08:34;66.78;;;22.27;;
52964;SDS011;42923;53.220;6.528;2022-12-10T08:11:02;51.55;;;10.90;;
52964;SDS011;42923;53.220;6.528;2022-12-10T08:13:28;72.07;;;14.90;;
52964;SDS011;42923;53.220;6.528;2022-12-10T08:16:02;75.60;;;18.70;;
52964;SDS011;42923;53.220;6.528;2022-12-10T08:18:32;83.80;;;21.58;;
52964;SDS011;42923;53.220;6.528;2022-12-10T08:21:06;72.72;;;18.85;;
52964;SDS011;42923;53.220;6.528;2022-12-10T08:23:34;32.30;;;14.27;;
52964;SDS011;42923;53.220;6.528;2022-12-10T08:26:07;39.45;;;12.13;;
52964;SDS011;42923;53.220;6.528;2022-12-10T08:28:34;74.05;;;19.02;;
52964;SDS011;42923;53.220;6.528;2022-12-10T08:31:01;111.05;;;28.08;;
52964;SDS011;42923;53.220;6.528;2022-12-10T08:33:27;80.38;;;27.15;;
52964;SDS011;42923;53.220;6.528;2022-12-10T08:35:56;88.57;;;25.75;;
52964;SDS011;42923;53.220;6.528;2022-12-10T08:38:23;75.22;;;24.38;;
52964;SDS011;42923;53.220;6.528;2022-12-10T08:40:49;29.05;;;10.02;;
52964;SDS011;42923;53.220;6.528;2022-12-10T08:43:15;76.30;;;24.52;;
52964;SDS011;42923;53.220;6.528;2022-12-10T08:45:40;121.10;;;23.60;;
52964;SDS011;42923;53.220;6.528;2022-12-10T08:48:06;74.10;;;26.60;;
52964;SDS011;42923;53.220;6.528;2022-12-10T08:50:32;56.28;;;16.70;;
52964;SDS011;42923;53.220;6.528;2022-12-10T08:52:58;40.55;;;11.80;;
52964;SDS011;42923;53.220;6.528;2022-12-10T08:55:25;66.88;;;22.63;;
52964;SDS011;42923;53.220;6.528;2022-12-10T08:57:50;85.82;;;23.00;;
52964;SDS011;42923;53.220;6.528;2022-12-10T09:00:17;28.08;;;7.53;;
52964;SDS011;42923;53.220;6.528;2022-12-10T09:02:44;49.03;;;19.02;;
52964;SDS011;42923;53.220;6.528;2022-12-10T09:05:10;55.92;;;13.30;;
52964;SDS011;42923;53.220;6.528;2022-12-10T09:07:37;46.10;;;15.32;;
52964;SDS011;42923;53.220;6.528;2022-12-10T09:10:02;76.43;;;21.92;;
52964;SDS011;42923;53.220;6.528;2022-12-10T09:12:28;32.97;;;13.48;;
52964;SDS011;42923;53.220;6.528;2022-12-10T09:14:54;40.38;;;17.58;;
52964;SDS011;42923;53.220;6.528;2022-12-10T09:17:21;52.15;;;11.65;;
52964;SDS011;42923;53.220;6.528;2022-12-10T09:19:47;60.53;;;16.98;;
52964;SDS011;42923;53.220;6.528;2022-12-10T09:22:12;47.33;;;17.92;;
52964;SDS011;42923;53.220;6.528;2022-12-10T09:24:38;43.75;;;18.05;;
52964;SDS011;42923;53.220;6.528;2022-12-10T09:27:04;39.13;;;17.35;;
52964;SDS011;42923;53.220;6.528;2022-12-10T09:29:30;52.72;;;15.52;;
52964;SDS011;42923;53.220;6.528;2022-12-10T09:31:55;60.97;;;16.38;;
52964;SDS011;42923;53.220;6.528;2022-12-10T09:34:21;78.97;;;19.58;;
52964;SDS011;42923;53.220;6.528;2022-12-10T09:36:47;63.28;;;17.58;;
52964;SDS011;42923;53.220;6.528;2022-12-10T09:39:13;48.88;;;16.08;;
52964;SDS011;42923;53.220;6.528;2022-12-10T09:44:52;21.60;;;11.10;;
52964;SDS011;42923;53.220;6.528;2022-12-10T09:47:42;35.05;;;11.82;;
52964;SDS011;42923;53.220;6.528;2022-12-10T09:52:37;26.50;;;9.85;;
52964;SDS011;42923;53.220;6.528;2022-12-10T09:55:12;43.08;;;19.40;;
52964;SDS011;42923;53.220;6.528;2022-12-10T09:57:59;36.30;;;15.05;;
52964;SDS011;42923;53.220;6.528;2022-12-10T10:00:30;29.17;;;11.40;;
52964;SDS011;42923;53.220;6.528;2022-12-10T10:03:00;44.90;;;14.60;;
52964;SDS011;42923;53.220;6.528;2022-12-10T10:05:28;44.67;;;18.52;;
52964;SDS011;42923;53.220;6.528;2022-12-10T10:08:51;38.42;;;15.15;;
52964;SDS011;42923;53.220;6.528;2022-12-10T10:11:08;37.20;;;17.48;;
52964;SDS011;42923;53.220;6.528;2022-12-10T10:13:45;43.95;;;18.70;;
52964;SDS011;42923;53.220;6.528;2022-12-10T10:16:19;42.92;;;19.30;;
52964;SDS011;42923;53.220;6.528;2022-12-10T10:18:59;42.22;;;18.13;;
52964;SDS011;42923;53.220;6.528;2022-12-10T10:21:28;55.65;;;19.38;;
52964;SDS011;42923;53.220;6.528;2022-12-10T10:23:58;35.88;;;17.45;;
52964;SDS011;42923;53.220;6.528;2022-12-10T10:26:25;38.90;;;18.50;;
52964;SDS011;42923;53.220;6.528;2022-12-10T10:28:54;43.38;;;16.20;;
52964;SDS011;42923;53.220;6.528;2022-12-10T10:31:24;29.17;;;11.63;;
52964;SDS011;42923;53.220;6.528;2022-12-10T10:33:56;36.22;;;19.17;;
52964;SDS011;42923;53.220;6.528;2022-12-10T10:36:27;50.55;;;17.65;;
52964;SDS011;42923;53.220;6.528;2022-12-10T10:38:55;32.60;;;16.10;;
52964;SDS011;42923;53.220;6.528;2022-12-10T10:41:23;41.72;;;16.33;;
52964;SDS011;42923;53.220;6.528;2022-12-10T10:43:52;21.00;;;10.70;;
52964;SDS011;42923;53.220;6.528;2022-12-10T10:46:25;39.28;;;14.35;;
52964;SDS011;42923;53.220;6.528;2022-12-10T10:48:51;29.88;;;11.07;;
52964;SDS011;42923;53.220;6.528;2022-12-10T10:52:19;45.97;;;16.80;;
52964;SDS011;42923;53.220;6.528;2022-12-10T10:54:45;56.50;;;20.90;;
52964;SDS011;42923;53.220;6.528;2022-12-10T10:57:20;42.58;;;19.67;;
52964;SDS011;42923;53.220;6.528;2022-12-10T10:59:53;45.53;;;19.40;;
52964;SDS011;42923;53.220;6.528;2022-12-10T11:05:03;40.80;;;17.35;;
52964;SDS011;42923;53.220;6.528;2022-12-10T11:07:33;30.85;;;16.40;;
52964;SDS011;42923;53.220;6.528;2022-12-10T11:10:24;39.33;;;15.32;;
52964;SDS011;42923;53.220;6.528;2022-12-10T11:15:31;32.45;;;12.02;;
52964;SDS011;42923;53.220;6.528;2022-12-10T11:17:59;44.17;;;21.63;;
52964;SDS011;42923;53.220;6.528;2022-12-10T11:23:07;38.92;;;14.30;;
52964;SDS011;42923;53.220;6.528;2022-12-10T11:31:02;28.00;;;11.32;;
52964;SDS011;42923;53.220;6.528;2022-12-10T11:36:52;37.78;;;14.32;;
52964;SDS011;42923;53.220;6.528;2022-12-10T11:51:22;19.27;;;9.25;;
52964;SDS011;42923;53.220;6.528;2022-12-10T11:58:51;51.05;;;20.58;;
52964;SDS011;42923;53.220;6.528;2022-12-10T12:01:26;52.50;;;21.30;;
52964;SDS011;42923;53.220;6.528;2022-12-10T12:17:42;47.58;;;20.33;;
52964;SDS011;42923;53.220;6.528;2022-12-10T12:20:14;59.20;;;19.55;;
52964;SDS011;42923;53.220;6.528;2022-12-10T12:22:44;35.88;;;15.23;;
52964;SDS011;42923;53.220;6.528;2022-12-10T12:25:25;50.83;;;19.05;;
52964;SDS011;42923;53.220;6.528;2022-12-10T12:28:38;37.15;;;11.75;;
52964;SDS011;42923;53.220;6.528;2022-12-10T12:30:45;58.72;;;21.05;;
52964;SDS011;42923;53.220;6.528;2022-12-10T12:33:38;43.53;;;18.85;;
52964;SDS011;42923;53.220;6.528;2022-12-10T12:36:29;69.35;;;20.88;;
52964;SDS011;42923;53.220;6.528;2022-12-10T12:39:05;37.63;;;12.50;;
52964;SDS011;42923;53.220;6.528;2022-12-10T12:42:06;38.75;;;14.70;;
52964;SDS011;42923;53.220;6.528;2022-12-10T12:47:32;55.67;;;18.58;;
52964;SDS011;42923;53.220;6.528;2022-12-10T12:52:58;41.20;;;14.98;;
52964;SDS011;42923;53.220;6.528;2022-12-10T12:55:33;48.17;;;12.77;;
52964;SDS011;42923;53.220;6.528;2022-12-10T12:58:11;59.47;;;18.75;;
52964;SDS011;42923;53.220;6.528;2022-12-10T13:00:39;21.15;;;9.60;;
52964;SDS011;42923;53.220;6.528;2022-12-10T13:03:17;52.03;;;19.80;;
52964;SDS011;42923;53.220;6.528;2022-12-10T13:05:44;60.50;;;19.70;;
52964;SDS011;42923;53.220;6.528;2022-12-10T13:08:15;67.25;;;20.85;;
52964;SDS011;42923;53.220;6.528;2022-12-10T13:13:29;76.43;;;17.58;;
52964;SDS011;42923;53.220;6.528;2022-12-10T13:37:34;71.18;;;23.05;;
52964;SDS011;42923;53.220;6.528;2022-12-10T13:42:35;61.33;;;18.08;;
52964;SDS011;42923;53.220;6.528;2022-12-10T13:47:48;82.53;;;20.85;;
52964;SDS011;42923;53.220;6.528;2022-12-10T13:50:26;62.25;;;20.45;;
52964;SDS011;42923;53.220;6.528;2022-12-10T13:53:17;63.85;;;21.90;;
52964;SDS011;42923;53.220;6.528;2022-12-10T14:01:40;56.58;;;20.95;;
52964;SDS011;42923;53.220;6.528;2022-12-10T14:06:55;45.83;;;19.48;;
52964;SDS011;42923;53.220;6.528;2022-12-10T14:09:21;67.88;;;21.63;;
52964;SDS011;42923;53.220;6.528;2022-12-10T14:11:57;65.55;;;19.85;;
52964;SDS011;42923;53.220;6.528;2022-12-10T14:14:32;44.60;;;17.27;;
52964;SDS011;42923;53.220;6.528;2022-12-10T14:17:04;70.53;;;21.20;;
52964;SDS011;42923;53.220;6.528;2022-12-10T14:19:42;45.45;;;12.15;;
52964;SDS011;42923;53.220;6.528;2022-12-10T14:22:17;22.45;;;10.98;;
52964;SDS011;42923;53.220;6.528;2022-12-10T14:24:49;31.95;;;13.65;;
52964;SDS011;42923;53.220;6.528;2022-12-10T14:27:19;24.33;;;9.65;;
52964;SDS011;42923;53.220;6.528;2022-12-10T14:29:50;42.03;;;14.52;;
52964;SDS011;42923;53.220;6.528;2022-12-10T14:32:24;41.75;;;15.23;;
52964;SDS011;42923;53.220;6.528;2022-12-10T14:34:55;39.80;;;12.75;;
52964;SDS011;42923;53.220;6.528;2022-12-10T14:37:28;53.90;;;17.95;;
52964;SDS011;42923;53.220;6.528;2022-12-10T14:39:56;42.65;;;16.02;;
52964;SDS011;42923;53.220;6.528;2022-12-10T14:42:22;36.78;;;14.15;;
52964;SDS011;42923;53.220;6.528;2022-12-10T14:44:58;30.38;;;12.90;;
52964;SDS011;42923;53.220;6.528;2022-12-10T14:47:27;48.67;;;16.80;;
52964;SDS011;42923;53.220;6.528;2022-12-10T14:50:11;51.90;;;19.10;;
52964;SDS011;42923;53.220;6.528;2022-12-10T14:52:45;56.92;;;20.45;;
52964;SDS011;42923;53.220;6.528;2022-12-10T14:55:16;58.65;;;18.48;;
52964;SDS011;42923;53.220;6.528;2022-12-10T14:57:48;63.00;;;22.27;;
52964;SDS011;42923;53.220;6.528;2022-12-10T15:00:20;53.22;;;17.75;;
52964;SDS011;42923;53.220;6.528;2022-12-10T15:02:48;60.78;;;19.00;;
52964;SDS011;42923;53.220;6.528;2022-12-10T15:07:55;52.42;;;18.63;;
52964;SDS011;42923;53.220;6.528;2022-12-10T15:10:42;54.90;;;17.65;;
52964;SDS011;42923;53.220;6.528;2022-12-10T15:13:18;58.22;;;18.48;;
52964;SDS011;42923;53.220;6.528;2022-12-10T15:15:48;33.35;;;11.43;;
52964;SDS011;42923;53.220;6.528;2022-12-10T15:18:18;22.83;;;8.80;;
52964;SDS011;42923;53.220;6.528;2022-12-10T15:20:50;24.50;;;12.10;;
52964;SDS011;42923;53.220;6.528;2022-12-10T15:23:23;43.17;;;15.90;;
52964;SDS011;42923;53.220;6.528;2022-12-10T15:28:33;33.83;;;12.57;;
52964;SDS011;42923;53.220;6.528;2022-12-10T15:33:56;45.80;;;10.65;;
52964;SDS011;42923;53.220;6.528;2022-12-10T15:36:30;49.28;;;14.02;;
52964;SDS011;42923;53.220;6.528;2022-12-10T15:39:13;36.08;;;12.02;;
52964;SDS011;42923;53.220;6.528;2022-12-10T15:41:51;34.53;;;12.07;;
52964;SDS011;42923;53.220;6.528;2022-12-10T15:47:23;56.43;;;16.73;;
52964;SDS011;42923;53.220;6.528;2022-12-10T15:49:51;37.15;;;13.15;;
52964;SDS011;42923;53.220;6.528;2022-12-10T15:52:19;46.20;;;15.90;;
52964;SDS011;42923;53.220;6.528;2022-12-10T15:54:48;63.53;;;15.43;;
52964;SDS011;42923;53.220;6.528;2022-12-10T15:57:23;44.08;;;14.18;;
52964;SDS011;42923;53.220;6.528;2022-12-10T15:59:53;53.30;;;18.38;;
52964;SDS011;42923;53.220;6.528;2022-12-10T16:07:37;38.20;;;12.13;;
52964;SDS011;42923;53.220;6.528;2022-12-10T16:10:03;49.60;;;12.50;;
52964;SDS011;42923;53.220;6.528;2022-12-10T16:12:30;49.58;;;14.30;;
52964;SDS011;42923;53.220;6.528;2022-12-10T16:14:58;46.28;;;16.70;;
52964;SDS011;42923;53.220;6.528;2022-12-10T16:17:27;49.45;;;14.27;;
52964;SDS011;42923;53.220;6.528;2022-12-10T16:19:56;26.10;;;10.23;;
52964;SDS011;42923;53.220;6.528;2022-12-10T16:22:41;64.90;;;15.48;;
52964;SDS011;42923;53.220;6.528;2022-12-10T16:25:07;75.28;;;17.65;;
52964;SDS011;42923;53.220;6.528;2022-12-10T16:27:33;55.65;;;17.05;;
52964;SDS011;42923;53.220;6.528;2022-12-10T16:30:05;79.38;;;19.85;;
52964;SDS011;42923;53.220;6.528;2022-12-10T16:32:39;21.77;;;10.38;;
52964;SDS011;42923;53.220;6.528;2022-12-10T16:35:05;49.42;;;12.48;;
52964;SDS011;42923;53.220;6.528;2022-12-10T16:37:31;69.70;;;21.15;;
52964;SDS011;42923;53.220;6.528;2022-12-10T16:39:56;51.80;;;14.55;;
52964;SDS011;42923;53.220;6.528;2022-12-10T16:42:22;63.03;;;18.38;;
52964;SDS011;42923;53.220;6.528;2022-12-10T16:44:48;137.95;;;26.77;;
52964;SDS011;42923;53.220;6.528;2022-12-10T16:47:14;58.40;;;17.67;;
52964;SDS011;42923;53.220;6.528;2022-12-10T16:49:40;87.63;;;21.83;;